Time;durP1;ratioP1;P1;durP2;ratioP2;P2;SDS_P1;SDS_P2;PMS_P1;PMS_P2;Temp;Humidity;BMP_temperature;BMP_pressure;BME280_temperature;BME280_humidity;BME280_pressure;Samples;Min_cycle;Max_cycle;Signal;HPM_P1;HPM_P2
2022/11/30 08:58:45;;;;;;;44.00;25.52;;;8.40;63.20;;;;;;5159684;22;20091;-76
2022/11/30 09:01:22;;;;;;;52.88;25.90;;;8.40;63.30;;;;;;5062959;28;20060;-74
2022/11/30 09:03:53;;;;;;;39.75;23.77;;;8.50;63.40;;;;;;5074807;28;20021;-76
2022/11/30 09:06:33;;;;;;;41.38;24.70;;;8.50;63.40;;;;;;5072738;28;20017;-75
2022/11/30 09:09:00;;;;;;;45.47;25.92;;;8.50;63.00;;;;;;5057212;28;20031;-77
2022/11/30 09:11:42;;;;;;;46.55;26.80;;;8.60;63.20;;;;;;5056193;28;20502;-77
2022/11/30 09:14:15;;;;;;;46.65;26.45;;;8.60;62.60;;;;;;5056876;28;20031;-78
2022/11/30 09:16:45;;;;;;;43.95;24.90;;;8.70;62.50;;;;;;5056974;28;20085;-78
2022/11/30 09:19:18;;;;;;;44.17;24.17;;;8.70;62.60;;;;;;5073368;28;20372;-74
2022/11/30 09:21:51;;;;;;;44.00;25.60;;;8.70;62.50;;;;;;5056446;28;20060;-74
2022/11/30 09:24:25;;;;;;;38.67;23.38;;;8.70;62.50;;;;;;5056648;28;20473;-73
2022/11/30 09:26:58;;;;;;;46.95;26.88;;;8.80;62.60;;;;;;5074741;28;20028;-75
2022/11/30 09:29:31;;;;;;;47.17;25.95;;;8.80;62.20;;;;;;5056492;28;20480;-75
2022/11/30 09:31:57;;;;;;;50.40;25.50;;;8.80;61.80;;;;;;5074186;28;20472;-76
2022/11/30 09:34:22;;;;;;;50.33;27.90;;;8.80;61.80;;;;;;5056369;28;20101;-75
2022/11/30 09:36:48;;;;;;;47.53;27.13;;;8.90;61.70;;;;;;5056200;28;20452;-75
2022/11/30 09:39:14;;;;;;;47.28;25.60;;;8.90;61.50;;;;;;5080103;28;20151;-77
2022/11/30 09:42:01;;;;;;;45.22;25.98;;;8.90;61.50;;;;;;5056443;28;20032;-76
2022/11/30 09:44:49;;;;;;;46.95;26.38;;;8.90;61.40;;;;;;5056206;28;20154;-79
2022/11/30 09:47:42;;;;;;;47.25;26.63;;;8.90;61.20;;;;;;5056213;28;20115;-74
2022/11/30 09:50:18;;;;;;;49.80;25.10;;;8.80;60.90;;;;;;5074065;28;20039;-72
2022/11/30 09:53:04;;;;;;;49.30;26.88;;;8.90;60.90;;;;;;5074359;28;20505;-76
2022/11/30 09:55:34;;;;;;;46.10;26.58;;;8.80;60.70;;;;;;5070754;28;20077;-78
2022/11/30 09:58:05;;;;;;;46.45;26.13;;;8.90;60.90;;;;;;5055305;28;20551;-78
2022/11/30 10:00:33;;;;;;;48.13;26.60;;;8.90;60.60;;;;;;5054706;28;20049;-78
2022/11/30 10:03:03;;;;;;;47.60;25.95;;;8.90;60.30;;;;;;5055648;28;20024;-76
2022/11/30 10:05:56;;;;;;;45.33;25.27;;;8.80;60.00;;;;;;5054572;28;20115;-76
2022/11/30 10:08:31;;;;;;;46.97;26.23;;;8.80;59.80;;;;;;5073583;28;20024;-73
2022/11/30 10:11:44;;;;;;;50.88;26.70;;;8.80;59.70;;;;;;5072868;28;20025;-73
2022/11/30 10:14:34;;;;;;;48.15;26.48;;;8.80;59.90;;;;;;4976150;28;20040;-79
2022/11/30 10:17:24;;;;;;;51.65;27.52;;;8.80;60.20;;;;;;5053417;28;20025;-79
2022/11/30 10:20:02;;;;;;;54.13;27.50;;;8.80;59.90;;;;;;5035432;28;20040;-75
2022/11/30 10:22:54;;;;;;;47.38;26.42;;;8.90;60.00;;;;;;5051879;28;20067;-76
2022/11/30 10:25:31;;;;;;;49.97;25.15;;;9.00;60.10;;;;;;5055025;28;20032;-79
2022/11/30 10:28:18;;;;;;;46.15;26.05;;;9.00;59.80;;;;;;5055189;28;20467;-78
2022/11/30 10:30:46;;;;;;;51.63;25.30;;;9.00;59.40;;;;;;5054933;28;20028;-75
2022/11/30 10:33:18;;;;;;;58.30;26.42;;;9.10;59.40;;;;;;5055289;28;20422;-76
2022/11/30 10:35:51;;;;;;;41.95;23.98;;;9.00;59.10;;;;;;5055355;28;20025;-79
2022/11/30 10:38:33;;;;;;;50.80;25.90;;;9.00;59.10;;;;;;5055298;28;20082;-79
2022/11/30 10:41:02;;;;;;;43.67;25.92;;;9.00;59.00;;;;;;5055219;28;20376;-75
2022/11/30 10:43:37;;;;;;;44.28;25.52;;;9.00;59.30;;;;;;5073079;28;20123;-76
2022/11/30 10:46:05;;;;;;;40.85;24.40;;;9.00;59.30;;;;;;5072674;28;20539;-77
2022/11/30 10:48:39;;;;;;;42.80;24.25;;;9.00;58.80;;;;;;5051480;28;20028;-79
2022/11/30 10:51:07;;;;;;;42.53;23.50;;;8.90;58.70;;;;;;5059321;28;20024;-81
2022/11/30 10:53:33;;;;;;;45.92;25.40;;;8.90;58.60;;;;;;5075394;28;20383;-81
2022/11/30 10:56:07;;;;;;;41.30;22.98;;;8.90;58.70;;;;;;5075038;28;20047;-82
2022/11/30 10:58:57;;;;;;;47.67;26.80;;;8.80;58.90;;;;;;5067402;28;20056;-79
2022/11/30 11:01:35;;;;;;;40.80;22.65;;;8.80;59.00;;;;;;5035024;28;20041;-84
2022/11/30 11:04:17;;;;;;;45.33;24.83;;;8.80;59.40;;;;;;5050824;28;20083;-81
2022/11/30 11:06:47;;;;;;;48.05;26.10;;;8.80;59.10;;;;;;5034997;28;20025;-77
2022/11/30 11:09:33;;;;;;;45.63;25.05;;;8.80;58.80;;;;;;5034976;28;20040;-76
2022/11/30 11:12:08;;;;;;;46.53;25.63;;;8.80;58.90;;;;;;5052777;28;20346;-75
2022/11/30 11:14:37;;;;;;;49.05;26.30;;;8.80;59.10;;;;;;5053029;28;20484;-75
2022/11/30 11:17:25;;;;;;;48.90;24.23;;;8.80;59.20;;;;;;5034826;28;20490;-75
2022/11/30 11:19:51;;;;;;;39.63;23.35;;;8.70;59.20;;;;;;5034421;28;20041;-75
2022/11/30 11:22:21;;;;;;;41.95;24.50;;;8.80;59.50;;;;;;5066362;28;20555;-76
2022/11/30 11:24:49;;;;;;;49.42;24.40;;;8.80;59.20;;;;;;5054890;28;20024;-75
2022/11/30 11:27:36;;;;;;;44.90;23.67;;;8.80;59.20;;;;;;5054806;28;20496;-75
2022/11/30 11:30:25;;;;;;;45.58;24.15;;;8.80;59.30;;;;;;5054841;28;20032;-76
2022/11/30 11:32:58;;;;;;;48.13;27.08;;;8.80;59.40;;;;;;5061972;28;20515;-75
2022/11/30 11:35:41;;;;;;;45.65;24.20;;;8.90;59.50;;;;;;5054207;28;20025;-77
2022/11/30 11:38:43;;;;;;;49.08;25.92;;;8.90;59.70;;;;;;5014732;28;20036;-77
2022/11/30 11:41:32;;;;;;;49.33;26.05;;;9.00;59.50;;;;;;5014827;28;20071;-78
2022/11/30 11:44:04;;;;;;;41.95;22.77;;;9.10;59.50;;;;;;5017774;28;20025;-75
2022/11/30 11:46:33;;;;;;;53.30;28.33;;;9.10;59.40;;;;;;5028643;28;20033;-75
2022/11/30 11:49:05;;;;;;;49.75;27.17;;;9.20;59.10;;;;;;5037778;28;20033;-78
2022/11/30 11:51:37;;;;;;;48.15;24.73;;;9.20;58.90;;;;;;5045061;28;20020;-76
2022/11/30 11:54:26;;;;;;;46.10;25.20;;;9.20;58.70;;;;;;5045537;28;20044;-76
2022/11/30 11:56:54;;;;;;;43.17;25.30;;;9.20;58.40;;;;;;5037183;28;20040;-74
2022/11/30 11:59:42;;;;;;;44.80;25.63;;;9.20;58.30;;;;;;5060723;28;20500;-82
2022/11/30 12:02:28;;;;;;;42.70;24.45;;;9.20;58.40;;;;;;5057900;28;20039;-72
2022/11/30 12:05:07;;;;;;;47.60;26.88;;;9.20;58.80;;;;;;5075736;28;20024;-72
2022/11/30 12:07:42;;;;;;;40.88;24.30;;;9.20;58.80;;;;;;5075362;28;20472;-76
2022/11/30 12:10:17;;;;;;;43.97;24.92;;;9.20;58.90;;;;;;5057611;28;20361;-76
2022/11/30 12:12:43;;;;;;;43.65;24.38;;;9.30;59.10;;;;;;5057847;28;20035;-76
2022/11/30 12:15:14;;;;;;;42.50;24.88;;;9.30;59.20;;;;;;5057576;28;20024;-76
2022/11/30 12:18:14;;;;;;;48.40;25.67;;;9.40;59.10;;;;;;5075696;28;20028;-76
2022/11/30 12:20:59;;;;;;;42.35;25.27;;;9.40;58.80;;;;;;5057551;28;20439;-75
2022/11/30 12:23:43;;;;;;;45.65;26.90;;;9.50;58.70;;;;;;5055270;28;20028;-75
2022/11/30 12:26:46;;;;;;;44.58;25.70;;;9.60;58.70;;;;;;5037670;28;20086;-75
2022/11/30 12:29:34;;;;;;;45.55;26.42;;;9.60;58.70;;;;;;4994310;28;20044;-73
2022/11/30 12:32:39;;;;;;;46.28;26.40;;;9.60;58.60;;;;;;5037428;28;20473;-73
2022/11/30 12:35:32;;;;;;;42.00;22.93;;;9.60;58.40;;;;;;5023861;28;20036;-72
2022/11/30 12:38:14;;;;;;;41.67;23.40;;;9.60;58.70;;;;;;5037635;28;20459;-71
2022/11/30 12:41:21;;;;;;;40.45;24.25;;;9.70;59.40;;;;;;5037396;28;20079;-74
2022/11/30 12:43:59;;;;;;;47.90;26.50;;;9.70;58.50;;;;;;5026581;28;20049;-74
2022/11/30 12:46:52;;;;;;;51.00;27.08;;;9.70;58.30;;;;;;5057107;28;20024;-74
2022/11/30 12:49:36;;;;;;;46.88;26.17;;;9.70;58.50;;;;;;5037124;28;20021;-75
2022/11/30 12:52:21;;;;;;;45.90;25.23;;;9.60;58.50;;;;;;5059738;28;20024;-75
2022/11/30 12:55:34;;;;;;;44.65;24.80;;;9.70;58.70;;;;;;5076796;28;20122;-75
2022/11/30 12:58:18;;;;;;;42.45;25.38;;;9.70;58.50;;;;;;5031993;28;20517;-72
2022/11/30 13:01:20;;;;;;;47.47;25.40;;;9.70;58.40;;;;;;5018904;28;20116;-74
2022/11/30 13:04:02;;;;;;;47.72;25.92;;;9.70;58.20;;;;;;5006993;28;20038;-75
2022/11/30 13:06:33;;;;;;;40.42;23.85;;;9.70;58.20;;;;;;5012592;28;20030;-72
2022/11/30 13:09:07;;;;;;;45.72;24.27;;;9.60;58.40;;;;;;5012585;28;20096;-74
2022/11/30 13:11:36;;;;;;;;;;;9.70;58.60;;;;;;5013002;28;20034;-71
2022/11/30 13:14:13;;;;;;;46.28;25.70;;;9.70;59.20;;;;;;5012404;28;20443;-75
2022/11/30 13:16:41;;;;;;;46.63;25.20;;;9.70;58.30;;;;;;5012688;28;20034;-75
2022/11/30 13:19:31;;;;;;;44.95;24.83;;;9.60;58.20;;;;;;4995646;28;20028;-72
2022/11/30 13:22:03;;;;;;;47.78;26.70;;;9.50;58.00;;;;;;5012517;28;20054;-70
2022/11/30 13:24:46;;;;;;;49.65;24.25;;;9.50;58.20;;;;;;5012319;28;20034;-72
2022/11/30 13:27:26;;;;;;;48.95;27.40;;;9.50;58.30;;;;;;4995703;28;20076;-75
2022/11/30 13:30:18;;;;;;;47.53;26.88;;;9.40;58.50;;;;;;4992840;28;20120;-85
2022/11/30 13:32:44;;;;;;;47.03;24.58;;;9.30;58.40;;;;;;4992824;28;20482;-74
2022/11/30 13:35:28;;;;;;;40.53;23.38;;;9.30;58.80;;;;;;5024017;28;20066;-74
2022/11/30 13:38:13;;;;;;;45.63;25.58;;;9.30;59.00;;;;;;5056208;28;20024;-73
2022/11/30 13:40:38;;;;;;;;;;;9.30;59.20;;;;;;5074539;28;20089;-73
2022/11/30 13:43:13;;;;;;;45.67;24.50;;;9.40;59.60;;;;;;5073982;28;19991;-80
2022/11/30 13:45:42;;;;;;;45.92;24.52;;;9.40;59.10;;;;;;5055973;28;20046;-77
2022/11/30 13:48:30;;;;;;;42.95;24.55;;;9.40;58.90;;;;;;5058588;28;20087;-73
2022/11/30 13:50:56;;;;;;;41.55;24.85;;;9.40;59.00;;;;;;5055778;28;20039;-75
2022/11/30 13:53:33;;;;;;;42.90;24.45;;;9.40;59.10;;;;;;5060458;28;20025;-74
2022/11/30 13:56:00;;;;;;;44.05;23.48;;;9.40;59.10;;;;;;5055690;28;20027;-74
2022/11/30 13:58:27;;;;;;;41.90;24.05;;;9.40;59.00;;;;;;5073429;28;20021;-75
2022/11/30 14:01:25;;;;;;;42.00;24.00;;;9.40;59.00;;;;;;5073121;28;20051;-75
2022/11/30 14:04:19;;;;;;;43.50;23.77;;;9.50;59.20;;;;;;5073570;28;20025;-74
2022/11/30 14:06:50;;;;;;;39.90;23.80;;;9.50;59.20;;;;;;5073015;28;20033;-76
2022/11/30 14:09:39;;;;;;;44.03;23.77;;;9.50;59.40;;;;;;5055141;28;20020;-74
2022/11/30 14:12:33;;;;;;;45.60;23.45;;;9.50;59.50;;;;;;5073081;28;20460;-75
2022/11/30 14:15:00;;;;;;;46.70;25.33;;;9.50;59.60;;;;;;5055557;28;20028;-74
2022/11/30 14:17:36;;;;;;;39.65;23.60;;;9.60;59.40;;;;;;5073116;28;20465;-72
2022/11/30 14:20:18;;;;;;;44.67;24.08;;;9.60;59.20;;;;;;5055423;28;20033;-74
2022/11/30 14:22:44;;;;;;;43.30;24.65;;;9.50;59.00;;;;;;5071319;28;20032;-77
2022/11/30 14:25:17;;;;;;;46.90;25.83;;;9.50;59.00;;;;;;5036297;28;20033;-71
2022/11/30 14:27:43;;;;;;;45.97;24.58;;;9.50;59.50;;;;;;5070928;28;20024;-73
2022/11/30 14:30:19;;;;;;;46.63;25.52;;;9.50;59.00;;;;;;5055201;28;20032;-71
2022/11/30 14:32:51;;;;;;;41.30;22.88;;;9.40;58.90;;;;;;5055032;28;20372;-70
2022/11/30 14:35:19;;;;;;;43.20;24.35;;;9.40;59.00;;;;;;5055057;28;20024;-73
2022/11/30 14:37:50;;;;;;;45.63;25.13;;;9.30;59.10;;;;;;5073030;28;20025;-74
2022/11/30 14:40:18;;;;;;;40.60;23.92;;;9.30;59.10;;;;;;5054607;28;20048;-76
2022/11/30 14:42:54;;;;;;;47.20;25.98;;;9.20;59.20;;;;;;5054603;28;20051;-77
2022/11/30 14:45:29;;;;;;;39.80;23.10;;;9.10;59.20;;;;;;5054750;28;20491;-79
2022/11/30 14:48:12;;;;;;;41.08;23.90;;;9.10;59.40;;;;;;5054952;28;20051;-78
2022/11/30 14:50:59;;;;;;;34.58;21.17;;;9.00;59.50;;;;;;5072886;28;20028;-73
2022/11/30 14:53:42;;;;;;;35.88;21.02;;;9.00;59.70;;;;;;5052351;28;20028;-72
2022/11/30 14:56:25;;;;;;;40.45;22.38;;;9.00;59.80;;;;;;5034973;28;20025;-74
2022/11/30 14:59:17;;;;;;;38.38;21.95;;;8.90;59.90;;;;;;5035184;28;20081;-72
2022/11/30 15:01:43;;;;;;;35.25;20.15;;;8.80;60.00;;;;;;5052726;28;20369;-74
2022/11/30 15:04:13;;;;;;;42.45;21.20;;;8.80;60.10;;;;;;5054797;28;20472;-77
2022/11/30 15:06:40;;;;;;;50.10;25.98;;;8.80;60.20;;;;;;5054720;28;20031;-75
2022/11/30 15:09:17;;;;;;;48.42;26.73;;;8.70;60.30;;;;;;5054760;28;20017;-75
2022/11/30 15:11:47;;;;;;;53.95;26.65;;;8.70;60.50;;;;;;5054788;28;20089;-77
2022/11/30 15:14:13;;;;;;;54.03;29.52;;;8.60;60.70;;;;;;5054464;28;20020;-74
2022/11/30 15:16:47;;;;;;;64.35;33.60;;;8.50;60.70;;;;;;5073360;28;20031;-74
2022/11/30 15:19:19;;;;;;;;;;;8.50;60.90;;;;;;5056965;28;20029;-73
2022/11/30 15:21:46;;;;;;;55.67;31.15;;;8.50;61.00;;;;;;5071650;28;19912;-72
2022/11/30 15:24:12;;;;;;;59.78;32.25;;;8.50;61.30;;;;;;5063722;28;20025;-79
2022/11/30 15:27:07;;;;;;;51.05;30.13;;;8.40;61.40;;;;;;5038689;28;20032;-72
2022/11/30 15:29:41;;;;;;;56.92;30.27;;;8.40;61.70;;;;;;5049838;28;20028;-74
2022/11/30 15:32:15;;;;;;;55.97;30.30;;;8.40;61.80;;;;;;5076257;28;20031;-76
2022/11/30 15:34:48;;;;;;;66.53;31.17;;;8.40;61.80;;;;;;5058524;28;20383;-74
2022/11/30 15:37:14;;;;;;;56.57;30.60;;;8.40;61.90;;;;;;5076579;28;20162;-74
2022/11/30 15:39:48;;;;;;;52.83;29.20;;;8.40;61.90;;;;;;5058066;28;20032;-76
2022/11/30 15:42:30;;;;;;;60.67;33.50;;;8.40;62.10;;;;;;5058284;28;20475;-73
2022/11/30 15:45:17;;;;;;;62.42;34.03;;;8.40;62.10;;;;;;5075921;28;20097;-71
2022/11/30 15:47:43;;;;;;;59.83;30.77;;;8.40;62.20;;;;;;5058170;28;20460;-71
2022/11/30 15:50:27;;;;;;;52.20;29.25;;;8.40;62.20;;;;;;5058159;28;20115;-72
2022/11/30 15:52:55;;;;;;;51.10;30.10;;;8.40;62.30;;;;;;5092053;28;20475;-71
2022/11/30 15:55:49;;;;;;;59.60;30.40;;;8.40;62.30;;;;;;5096472;28;20036;-74
2022/11/30 15:58:46;;;;;;;56.47;30.77;;;8.40;62.30;;;;;;5075548;28;20149;-73
2022/11/30 16:01:19;;;;;;;46.83;26.95;;;8.40;62.50;;;;;;5096078;28;20088;-74
2022/11/30 16:03:54;;;;;;;47.95;27.80;;;8.40;62.60;;;;;;5095860;28;20035;-71
2022/11/30 16:06:27;;;;;;;48.70;27.80;;;8.40;62.60;;;;;;5077785;28;20052;-72
2022/11/30 16:08:54;;;;;;;56.63;29.63;;;8.40;62.70;;;;;;5078023;28;20028;-72
2022/11/30 16:11:21;;;;;;;52.85;28.38;;;8.50;62.70;;;;;;5080783;28;20536;-73
2022/11/30 16:13:47;;;;;;;65.07;34.47;;;8.50;62.70;;;;;;5075624;28;20373;-71
2022/11/30 16:16:18;;;;;;;56.45;33.13;;;8.50;62.70;;;;;;5075332;28;20383;-73
2022/11/30 16:18:44;;;;;;;50.28;28.40;;;8.50;62.60;;;;;;5075484;28;20020;-72
2022/11/30 16:21:15;;;;;;;48.15;26.45;;;8.50;62.50;;;;;;5075198;28;20029;-72
2022/11/30 16:23:41;;;;;;;40.42;23.70;;;8.50;62.50;;;;;;5057571;28;20376;-70
2022/11/30 16:26:18;;;;;;;48.17;28.25;;;8.50;62.50;;;;;;5057453;28;20060;-73
2022/11/30 16:28:44;;;;;;;46.85;26.23;;;8.50;62.40;;;;;;5074858;28;20020;-71
2022/11/30 16:31:17;;;;;;;49.80;26.25;;;8.50;62.40;;;;;;5074166;28;20040;-70
2022/11/30 16:33:44;;;;;;;48.70;26.50;;;8.40;62.40;;;;;;5057326;28;20052;-73
2022/11/30 16:36:20;;;;;;;59.15;31.60;;;8.40;62.50;;;;;;5075251;28;20360;-73
2022/11/30 16:38:50;;;;;;;55.80;32.47;;;8.40;62.60;;;;;;5075281;28;20085;-71
2022/11/30 16:41:23;;;;;;;51.22;29.27;;;8.40;62.70;;;;;;5087606;28;20039;-71
2022/11/30 16:43:56;;;;;;;52.97;28.67;;;8.40;62.70;;;;;;5095342;28;20601;-71
2022/11/30 16:46:25;;;;;;;54.85;31.33;;;8.40;62.80;;;;;;5095312;28;20442;-71
2022/11/30 16:48:51;;;;;;;85.80;50.63;;;8.40;62.80;;;;;;5095475;28;20028;-71
2022/11/30 16:51:23;;;;;;;73.50;41.88;;;8.30;62.90;;;;;;5095274;28;20031;-70
2022/11/30 16:53:50;;;;;;;59.50;33.83;;;8.30;62.90;;;;;;5077031;28;20609;-71
2022/11/30 16:56:17;;;;;;;53.22;29.65;;;8.30;62.90;;;;;;5095302;28;20221;-71
2022/11/30 16:58:43;;;;;;;54.45;31.05;;;8.20;62.90;;;;;;5095104;28;20035;-71
2022/11/30 17:01:22;;;;;;;48.95;27.30;;;8.20;63.00;;;;;;5094794;28;20055;-71
2022/11/30 17:03:50;;;;;;;55.83;30.05;;;8.20;63.20;;;;;;5095000;28;20028;-71
2022/11/30 17:06:19;;;;;;;51.03;28.13;;;8.10;63.20;;;;;;5076595;28;20487;-71
2022/11/30 17:08:47;;;;;;;51.15;27.58;;;8.10;63.20;;;;;;5076716;28;20104;-73
2022/11/30 17:11:29;;;;;;;50.40;28.42;;;8.10;63.20;;;;;;5094434;28;20032;-72
2022/11/30 17:13:58;;;;;;;47.80;28.33;;;8.10;63.30;;;;;;5095348;28;20030;-72
2022/11/30 17:16:24;;;;;;;51.03;28.23;;;8.10;63.40;;;;;;5094658;28;20077;-71
2022/11/30 17:18:50;;;;;;;49.97;27.83;;;8.10;63.50;;;;;;5094753;28;20020;-71
2022/11/30 17:21:20;;;;;;;50.25;27.27;;;8.10;63.60;;;;;;5089029;28;20025;-71
2022/11/30 17:23:46;;;;;;;45.15;25.52;;;8.10;63.60;;;;;;5056421;28;20039;-71
2022/11/30 17:26:16;;;;;;;45.33;24.50;;;8.10;64.50;;;;;;5074390;28;20025;-72
2022/11/30 17:28:44;;;;;;;45.53;25.40;;;8.10;63.70;;;;;;5073145;28;20039;-71
2022/11/30 17:31:10;;;;;;;46.22;27.13;;;8.10;63.70;;;;;;5056503;28;20032;-71
2022/11/30 17:33:37;;;;;;;43.80;25.73;;;8.10;63.70;;;;;;5073976;28;20456;-71
2022/11/30 17:36:06;;;;;;;43.88;24.85;;;8.10;63.80;;;;;;5073990;28;20492;-71
2022/11/30 17:38:34;;;;;;;46.60;25.02;;;8.10;63.80;;;;;;5056169;28;20496;-71
2022/11/30 17:41:06;;;;;;;49.92;28.60;;;8.10;63.80;;;;;;5082722;28;20447;-71
2022/11/30 17:43:32;;;;;;;48.28;27.60;;;8.10;63.90;;;;;;5076327;28;20051;-71
2022/11/30 17:46:07;;;;;;;55.78;29.58;;;8.10;63.80;;;;;;5094436;28;20020;-71
2022/11/30 17:48:33;;;;;;;50.65;28.80;;;8.10;63.90;;;;;;5093955;28;20024;-71
2022/11/30 17:51:00;;;;;;;52.75;28.95;;;8.10;63.90;;;;;;5076047;28;20114;-71
2022/11/30 17:53:26;;;;;;;48.97;28.15;;;8.10;63.90;;;;;;5094282;28;20047;-71
2022/11/30 17:56:14;;;;;;;50.08;26.92;;;8.10;64.00;;;;;;5075960;28;20035;-71
2022/11/30 17:58:42;;;;;;;51.03;27.00;;;8.10;64.10;;;;;;5093852;28;20496;-71
2022/11/30 18:01:23;;;;;;;50.72;28.77;;;8.20;65.00;;;;;;5075109;28;20044;-71
2022/11/30 18:03:50;;;;;;;45.45;26.20;;;8.20;64.20;;;;;;5075818;28;20456;-72
2022/11/30 18:06:17;;;;;;;43.20;26.00;;;8.20;64.30;;;;;;5093744;28;20467;-71
2022/11/30 18:08:43;;;;;;;51.35;25.88;;;8.20;64.20;;;;;;5094050;28;20134;-71
2022/11/30 18:11:15;;;;;;;45.83;25.65;;;8.20;64.20;;;;;;5064814;28;20032;-71
2022/11/30 18:13:42;;;;;;;40.85;23.30;;;8.20;64.00;;;;;;5073477;28;20077;-71
2022/11/30 18:16:09;;;;;;;42.97;23.85;;;8.30;64.00;;;;;;5055725;28;20121;-71
2022/11/30 18:18:35;;;;;;;44.05;24.92;;;8.30;64.00;;;;;;5073934;28;20167;-71
2022/11/30 18:21:10;;;;;;;43.63;25.13;;;8.20;63.90;;;;;;5073573;28;20032;-71
2022/11/30 18:23:38;;;;;;;37.92;22.38;;;8.20;63.90;;;;;;5073574;28;20023;-71
2022/11/30 18:26:06;;;;;;;44.60;24.48;;;8.20;63.90;;;;;;5055586;28;20032;-71
2022/11/30 18:28:32;;;;;;;46.33;25.13;;;8.20;63.90;;;;;;5055388;28;20060;-71
2022/11/30 18:30:59;;;;;;;39.85;22.80;;;8.20;63.90;;;;;;5055460;28;20024;-71
2022/11/30 18:33:25;;;;;;;44.63;24.02;;;8.20;63.90;;;;;;5073154;28;20479;-71
2022/11/30 18:35:55;;;;;;;40.08;23.90;;;8.20;63.90;;;;;;5073149;28;20184;-71
2022/11/30 18:38:21;;;;;;;41.90;23.48;;;8.20;63.90;;;;;;5055461;28;20024;-71
2022/11/30 18:40:47;;;;;;;46.92;26.48;;;8.20;63.90;;;;;;5073824;28;20495;-71
2022/11/30 18:43:15;;;;;;;41.30;23.42;;;8.20;63.90;;;;;;5073413;28;20042;-71
2022/11/30 18:45:42;;;;;;;46.53;25.48;;;8.20;64.00;;;;;;5073444;28;20077;-71
2022/11/30 18:48:08;;;;;;;39.15;22.40;;;8.20;64.00;;;;;;5055319;28;20066;-72
2022/11/30 18:50:34;;;;;;;41.72;25.13;;;8.20;64.00;;;;;;5055291;28;20124;-71
2022/11/30 18:53:03;;;;;;;42.60;22.85;;;8.20;64.10;;;;;;5072628;28;20029;-71
2022/11/30 18:55:29;;;;;;;38.22;22.88;;;8.20;64.20;;;;;;5073299;28;20031;-71
2022/11/30 18:57:56;;;;;;;41.15;22.63;;;8.10;64.20;;;;;;5073362;28;20020;-71
2022/11/30 19:00:25;;;;;;;40.67;21.63;;;8.20;64.30;;;;;;5072713;28;20044;-71
2022/11/30 19:02:51;;;;;;;41.75;23.35;;;8.20;64.30;;;;;;5072605;28;20089;-71
2022/11/30 19:05:38;;;;;;;40.17;22.40;;;8.20;64.30;;;;;;5073149;28;20060;-71
2022/11/30 19:08:07;;;;;;;46.65;25.85;;;8.20;64.40;;;;;;5055099;28;20028;-71
2022/11/30 19:10:35;;;;;;;45.80;25.27;;;8.20;64.40;;;;;;5075993;28;20063;-72
2022/11/30 19:13:04;;;;;;;42.65;24.33;;;8.20;64.40;;;;;;5092991;28;20057;-71
2022/11/30 19:15:39;;;;;;;39.83;22.92;;;8.20;64.40;;;;;;5093150;28;20107;-71
2022/11/30 19:18:06;;;;;;;42.85;22.67;;;8.20;64.40;;;;;;5093248;28;20017;-71
2022/11/30 19:20:39;;;;;;;40.70;23.25;;;8.20;64.50;;;;;;5092790;28;20028;-71
2022/11/30 19:23:06;;;;;;;59.40;31.38;;;8.20;64.50;;;;;;5092651;28;20024;-71
2022/11/30 19:25:32;;;;;;;168.35;86.13;;;8.20;64.50;;;;;;5074996;28;20452;-71
2022/11/30 19:27:59;;;;;;;155.57;79.53;;;8.20;64.50;;;;;;5092838;28;20452;-71
2022/11/30 19:30:25;;;;;;;150.85;76.80;;;8.20;64.50;;;;;;5074921;28;20039;-70
2022/11/30 19:32:53;;;;;;;87.28;44.35;;;8.20;64.50;;;;;;5093139;28;20024;-71
2022/11/30 19:35:21;;;;;;;98.95;49.33;;;8.20;64.60;;;;;;5062968;28;20038;-71
2022/11/30 19:37:52;;;;;;;111.03;58.53;;;8.20;64.80;;;;;;5072603;28;20036;-71
2022/11/30 19:40:23;;;;;;;90.65;49.67;;;8.20;64.80;;;;;;5074256;28;20116;-71
2022/11/30 19:42:49;;;;;;;81.50;43.67;;;8.20;64.80;;;;;;5092758;28;20021;-71
2022/11/30 19:45:17;;;;;;;65.68;37.28;;;8.20;64.80;;;;;;5074896;28;20460;-71
2022/11/30 19:47:46;;;;;;;58.85;31.40;;;8.20;64.80;;;;;;5092903;28;20024;-71
2022/11/30 19:50:15;;;;;;;46.78;27.45;;;8.20;64.70;;;;;;5092661;28;20032;-71
2022/11/30 19:52:42;;;;;;;50.58;27.95;;;8.20;64.70;;;;;;5092907;28;20117;-71
2022/11/30 19:55:12;;;;;;;40.35;25.00;;;8.20;64.70;;;;;;5092492;28;20101;-71
2022/11/30 19:57:38;;;;;;;42.78;24.95;;;8.20;64.80;;;;;;5092850;28;20414;-71
2022/11/30 20:00:06;;;;;;;38.80;23.38;;;8.20;64.80;;;;;;5074271;28;20048;-71
2022/11/30 20:02:34;;;;;;;44.38;24.48;;;8.20;64.80;;;;;;5075047;28;20042;-71
2022/11/30 20:05:01;;;;;;;46.03;25.70;;;8.20;64.80;;;;;;5077287;28;20028;-71
2022/11/30 20:07:28;;;;;;;40.47;22.55;;;8.20;64.80;;;;;;5096714;28;20016;-71
2022/11/30 20:09:56;;;;;;;41.53;23.75;;;8.20;64.80;;;;;;5078009;28;20426;-71
2022/11/30 20:12:25;;;;;;;37.65;21.90;;;8.20;64.80;;;;;;5057802;28;20036;-71
2022/11/30 20:14:51;;;;;;;38.63;23.15;;;8.20;64.80;;;;;;5058017;28;20380;-71
2022/11/30 20:17:23;;;;;;;39.35;21.98;;;8.20;64.80;;;;;;5075476;28;20056;-71
2022/11/30 20:19:49;;;;;;;37.38;21.98;;;8.20;64.80;;;;;;5075510;28;20060;-71
2022/11/30 20:22:16;;;;;;;41.08;22.13;;;8.20;64.80;;;;;;5075811;28;20112;-71
2022/11/30 20:24:42;;;;;;;41.05;22.98;;;8.20;64.90;;;;;;5057835;28;20028;-72
2022/11/30 20:27:09;;;;;;;36.47;20.67;;;8.20;64.90;;;;;;5057667;28;20473;-71
2022/11/30 20:29:35;;;;;;;43.47;23.90;;;8.20;65.00;;;;;;5057825;28;20033;-71
2022/11/30 20:32:02;;;;;;;39.35;23.20;;;8.20;65.10;;;;;;5057695;28;20035;-71
2022/11/30 20:34:28;;;;;;;39.35;24.08;;;8.10;65.00;;;;;;5075501;28;20024;-71
2022/11/30 20:36:54;;;;;;;40.55;23.92;;;8.20;65.20;;;;;;5057636;28;20029;-71
2022/11/30 20:39:20;;;;;;;42.38;23.48;;;8.20;65.30;;;;;;5075257;28;20457;-71
2022/11/30 20:41:46;;;;;;;40.63;22.73;;;8.20;65.30;;;;;;5088816;28;20039;-71
2022/11/30 20:44:14;;;;;;;40.92;22.33;;;8.20;65.30;;;;;;5095668;28;20028;-71
2022/11/30 20:46:41;;;;;;;39.10;23.20;;;8.20;65.30;;;;;;5095501;28;20371;-71
2022/11/30 20:49:16;;;;;;;42.75;23.35;;;8.30;65.50;;;;;;5077401;28;20422;-71
2022/11/30 20:51:43;;;;;;;42.65;23.65;;;8.20;65.50;;;;;;5095202;28;20085;-71
2022/11/30 20:54:11;;;;;;;40.45;23.25;;;8.20;65.40;;;;;;5077509;28;20430;-71
2022/11/30 20:56:39;;;;;;;39.38;23.90;;;8.30;65.50;;;;;;5095444;28;20024;-71
2022/11/30 20:59:14;;;;;;;37.00;21.40;;;8.30;65.40;;;;;;5080375;28;20375;-71
2022/11/30 21:01:42;;;;;;;38.53;21.83;;;8.30;65.40;;;;;;5068364;28;20511;-71
2022/11/30 21:04:09;;;;;;;36.83;21.10;;;8.30;66.10;;;;;;5055540;28;20074;-72
2022/11/30 21:06:36;;;;;;;36.10;20.98;;;8.30;65.20;;;;;;5073077;28;20040;-71
2022/11/30 21:09:03;;;;;;;35.88;20.75;;;8.30;65.20;;;;;;5073489;28;20111;-71
2022/11/30 21:11:30;;;;;;;38.67;19.98;;;8.30;65.10;;;;;;5076042;28;20016;-71
2022/11/30 21:13:57;;;;;;;32.30;19.52;;;8.30;65.00;;;;;;5074512;28;20428;-71
2022/11/30 21:16:27;;;;;;;32.15;19.58;;;8.30;65.00;;;;;;5056148;28;20013;-71
2022/11/30 21:18:54;;;;;;;36.25;20.98;;;8.20;65.60;;;;;;5054126;28;20065;-71
2022/11/30 21:21:23;;;;;;;49.78;26.55;;;8.20;64.80;;;;;;5074070;28;20032;-71
2022/11/30 21:23:52;;;;;;;46.85;25.85;;;8.20;64.70;;;;;;5056563;28;20028;-71
2022/11/30 21:26:25;;;;;;;39.05;21.55;;;8.10;64.70;;;;;;5074396;28;20020;-71
2022/11/30 21:28:57;;;;;;;31.25;18.83;;;8.00;64.60;;;;;;5075171;28;20337;-71
2022/11/30 21:31:23;;;;;;;32.80;17.80;;;8.00;64.70;;;;;;5074471;28;20452;-71
2022/11/30 21:33:50;;;;;;;29.52;17.15;;;7.90;64.80;;;;;;5056524;28;20043;-71
2022/11/30 21:36:16;;;;;;;31.83;18.35;;;7.90;65.00;;;;;;5074774;28;20174;-73
2022/11/30 21:38:42;;;;;;;33.47;16.58;;;7.80;65.20;;;;;;5072656;28;20024;-71
2022/11/30 21:41:10;;;;;;;32.22;19.02;;;7.80;66.30;;;;;;5063294;28;20040;-71
2022/11/30 21:43:39;;;;;;;43.55;24.08;;;7.80;65.70;;;;;;5094448;28;20026;-70
2022/11/30 21:46:10;;;;;;;32.88;18.80;;;7.80;65.80;;;;;;5094318;28;20020;-71
2022/11/30 21:48:37;;;;;;;87.00;38.05;;;7.90;66.00;;;;;;5094694;28;20027;-70
2022/11/30 21:51:20;;;;;;;99.90;44.38;;;7.90;66.10;;;;;;5064377;28;20028;-70
2022/11/30 21:53:48;;;;;;;68.47;33.78;;;7.90;66.20;;;;;;5055748;28;20476;-71
2022/11/30 21:56:22;;;;;;;49.28;24.90;;;7.90;66.30;;;;;;5074013;28;20031;-71
2022/11/30 21:58:50;;;;;;;50.47;24.92;;;8.00;66.40;;;;;;5056038;28;20487;-70
2022/11/30 22:01:25;;;;;;;52.63;26.88;;;8.00;66.40;;;;;;5073352;28;20047;-71
2022/11/30 22:03:54;;;;;;;40.45;22.02;;;8.00;66.40;;;;;;5073824;28;20024;-71
2022/11/30 22:06:26;;;;;;;34.13;18.92;;;8.10;66.30;;;;;;5055758;28;20027;-71
2022/11/30 22:08:55;;;;;;;30.45;17.08;;;8.10;66.20;;;;;;5073548;28;20533;-71